BBC Delaware — V2CN9 — position and weather

sailwx.info

Track history (hours):
 
Tides and Currents Weather Stations Pressure Air Temp Water Temp Dewpoint Dewpoint Depression Visibility Wind Speed Wind Dir Waves Ship Positions

BBC Delaware

Last reported at 2015-Mar-19 00:33 UTC. Time now 2015-Apr-01 08:03 UTC.
Position N 29°34' W 094°56'.
Warning: this ship's position is 13 days out of date.

Length 138 m; draft 6.5 m.

Type: Cargo ship. MMSI: 305057000.

Date/timePositionNaut miles runAvg speedWind from/ knotsBaromVisibWave heightAir tempDewpointWater temp
2015-Mar-19 00:33N 29°34' W 094°56'1111.1
2015-Mar-18 23:33N 29°44' W 095°02'7 7.0
2015-Mar-18 22:33N 29°45' W 095°10'4 0.9
2015-Mar-18 17:31N 29°43' W 095°15'0 0.0
2015-Mar-18 16:31N 29°43' W 095°15'0 0.0
2015-Mar-18 15:31N 29°43' W 095°15'0 0.0
2015-Mar-18 14:31N 29°43' W 095°15'0 0.0
2015-Mar-18 13:31N 29°43' W 095°15'0 0.0
2015-Mar-16 21:04N 29°43' W 095°15'0 0.0
2015-Mar-16 20:31N 29°43' W 095°15'0 0.0
2015-Mar-16 19:31N 29°43' W 095°15'0 0.0
2015-Mar-16 18:31N 29°43' W 095°15'0 0.0
2015-Mar-16 17:31N 29°43' W 095°15'0 0.0
2015-Mar-16 16:31N 29°43' W 095°15'0 0.0
2015-Mar-16 15:31N 29°43' W 095°15'0 0.0
2015-Mar-16 14:31N 29°43' W 095°15'0 0.0
2015-Mar-16 13:28N 29°43' W 095°15'1 0.0
2015-Mar-15 22:26N 29°43' W 095°14'6 5.2
2015-Mar-15 21:21N 29°44' W 095°08'4 5.0
2015-Mar-15 20:33N 29°44' W 095°03'8 8.0
2015-Mar-15 19:33N 29°38' W 094°58'1312.7
2015-Mar-15 18:33N 29°27' W 094°50'  
Track history (hours):
 
Tides and Currents Weather Stations Pressure Air Temp Water Temp Dewpoint Dewpoint Depression Visibility Wind Speed Wind Dir Waves Ship Positions

BBC Delaware

Last reported at 2015-Mar-19 00:33 UTC. Time now 2015-Apr-01 08:03 UTC.
Position N 29°34' W 094°56'.
Warning: this ship's position is 13 days out of date.

Length 138 m; draft 6.5 m.

Type: Cargo ship. MMSI: 305057000.

Date/timePositionNaut miles runAvg speedWind from/ knotsBaromVisibWave heightAir tempDewpointWater temp
2015-Mar-19 00:33N 29°34' W 094°56'1111.1
2015-Mar-18 23:33N 29°44' W 095°02'7 7.0
2015-Mar-18 22:33N 29°45' W 095°10'4 0.9
2015-Mar-18 17:31N 29°43' W 095°15'0 0.0
2015-Mar-18 16:31N 29°43' W 095°15'0 0.0
2015-Mar-18 15:31N 29°43' W 095°15'0 0.0
2015-Mar-18 14:31N 29°43' W 095°15'0 0.0
2015-Mar-18 13:31N 29°43' W 095°15'0 0.0
2015-Mar-16 21:04N 29°43' W 095°15'0 0.0
2015-Mar-16 20:31N 29°43' W 095°15'0 0.0
2015-Mar-16 19:31N 29°43' W 095°15'0 0.0
2015-Mar-16 18:31N 29°43' W 095°15'0 0.0
2015-Mar-16 17:31N 29°43' W 095°15'0 0.0
2015-Mar-16 16:31N 29°43' W 095°15'0 0.0
2015-Mar-16 15:31N 29°43' W 095°15'0 0.0
2015-Mar-16 14:31N 29°43' W 095°15'0 0.0
2015-Mar-16 13:28N 29°43' W 095°15'1 0.0
2015-Mar-15 22:26N 29°43' W 095°14'6 5.2
2015-Mar-15 21:21N 29°44' W 095°08'4 5.0
2015-Mar-15 20:33N 29°44' W 095°03'8 8.0
2015-Mar-15 19:33N 29°38' W 094°58'1312.7
2015-Mar-15 18:33N 29°27' W 094°50'  

Dump ship's entire track history